sensor_id;sensor_type;location;lat;lon;timestamp;temperature;humidity
6355;DHT22;3210;48.708;9.030;2022-10-26T00:02:10;10.80;99.90
6355;DHT22;3210;48.708;9.030;2022-10-26T00:04:37;10.90;99.90
6355;DHT22;3210;48.708;9.030;2022-10-26T00:07:04;10.90;99.90
6355;DHT22;3210;48.708;9.030;2022-10-26T00:09:31;10.80;99.90
6355;DHT22;3210;48.708;9.030;2022-10-26T00:11:57;10.90;99.90
6355;DHT22;3210;48.708;9.030;2022-10-26T00:14:25;10.90;99.90
6355;DHT22;3210;48.708;9.030;2022-10-26T00:16:53;10.90;99.90
6355;DHT22;3210;48.708;9.030;2022-10-26T00:19:20;10.90;99.90
6355;DHT22;3210;48.708;9.030;2022-10-26T00:21:47;10.90;99.90
6355;DHT22;3210;48.708;9.030;2022-10-26T00:24:14;10.90;99.90
6355;DHT22;3210;48.708;9.030;2022-10-26T00:26:41;10.90;99.90
6355;DHT22;3210;48.708;9.030;2022-10-26T00:29:10;10.90;99.90
6355;DHT22;3210;48.708;9.030;2022-10-26T00:31:38;10.90;99.90
6355;DHT22;3210;48.708;9.030;2022-10-26T00:34:07;10.90;99.90
6355;DHT22;3210;48.708;9.030;2022-10-26T00:36:34;10.90;99.90
6355;DHT22;3210;48.708;9.030;2022-10-26T00:39:02;11.00;99.90
6355;DHT22;3210;48.708;9.030;2022-10-26T00:41:31;11.00;99.90
6355;DHT22;3210;48.708;9.030;2022-10-26T00:43:58;11.00;99.90
6355;DHT22;3210;48.708;9.030;2022-10-26T00:46:27;11.00;99.90
6355;DHT22;3210;48.708;9.030;2022-10-26T00:48:57;11.00;99.90
6355;DHT22;3210;48.708;9.030;2022-10-26T00:51:29;11.00;99.90
6355;DHT22;3210;48.708;9.030;2022-10-26T00:53:59;11.00;99.90
6355;DHT22;3210;48.708;9.030;2022-10-26T00:56:26;11.00;99.90
6355;DHT22;3210;48.708;9.030;2022-10-26T00:58:54;11.00;99.90
6355;DHT22;3210;48.708;9.030;2022-10-26T01:01:21;11.00;99.90
6355;DHT22;3210;48.708;9.030;2022-10-26T01:03:48;11.00;99.90
6355;DHT22;3210;48.708;9.030;2022-10-26T01:06:15;11.00;99.90
6355;DHT22;3210;48.708;9.030;2022-10-26T01:08:43;11.00;99.90
6355;DHT22;3210;48.708;9.030;2022-10-26T01:11:11;11.10;99.90
6355;DHT22;3210;48.708;9.030;2022-10-26T01:13:39;11.00;99.90
6355;DHT22;3210;48.708;9.030;2022-10-26T01:16:19;11.00;99.90
6355;DHT22;3210;48.708;9.030;2022-10-26T01:18:56;11.00;99.90
6355;DHT22;3210;48.708;9.030;2022-10-26T01:21:40;11.00;99.90
6355;DHT22;3210;48.708;9.030;2022-10-26T01:27:28;11.00;99.90
6355;DHT22;3210;48.708;9.030;2022-10-26T01:30:27;11.00;99.90
6355;DHT22;3210;48.708;9.030;2022-10-26T01:35:50;11.00;99.90
6355;DHT22;3210;48.708;9.030;2022-10-26T01:38:25;11.00;99.90
6355;DHT22;3210;48.708;9.030;2022-10-26T01:41:01;11.10;99.90
6355;DHT22;3210;48.708;9.030;2022-10-26T01:43:32;11.00;99.90
6355;DHT22;3210;48.708;9.030;2022-10-26T01:46:02;10.90;99.90
6355;DHT22;3210;48.708;9.030;2022-10-26T01:48:32;11.10;99.90
6355;DHT22;3210;48.708;9.030;2022-10-26T01:51:00;11.10;99.90
6355;DHT22;3210;48.708;9.030;2022-10-26T01:53:29;11.10;99.90
6355;DHT22;3210;48.708;9.030;2022-10-26T01:55:57;11.20;99.90
6355;DHT22;3210;48.708;9.030;2022-10-26T01:58:55;11.10;99.90
6355;DHT22;3210;48.708;9.030;2022-10-26T02:01:45;11.10;99.90
6355;DHT22;3210;48.708;9.030;2022-10-26T02:04:26;11.10;99.90
6355;DHT22;3210;48.708;9.030;2022-10-26T02:07:01;11.10;99.90
6355;DHT22;3210;48.708;9.030;2022-10-26T02:09:34;11.00;99.90
6355;DHT22;3210;48.708;9.030;2022-10-26T02:12:10;11.00;99.90
6355;DHT22;3210;48.708;9.030;2022-10-26T02:14:44;11.10;99.90
6355;DHT22;3210;48.708;9.030;2022-10-26T02:17:18;11.00;99.90
6355;DHT22;3210;48.708;9.030;2022-10-26T02:19:51;11.10;99.90
6355;DHT22;3210;48.708;9.030;2022-10-26T02:22:23;11.20;99.90
6355;DHT22;3210;48.708;9.030;2022-10-26T02:24:52;11.30;99.90
6355;DHT22;3210;48.708;9.030;2022-10-26T02:27:21;11.20;99.90
6355;DHT22;3210;48.708;9.030;2022-10-26T02:29:51;11.10;99.90
6355;DHT22;3210;48.708;9.030;2022-10-26T02:32:22;11.20;99.90
6355;DHT22;3210;48.708;9.030;2022-10-26T02:34:51;11.20;99.90
6355;DHT22;3210;48.708;9.030;2022-10-26T02:37:20;11.20;99.90
6355;DHT22;3210;48.708;9.030;2022-10-26T02:39:50;11.10;99.90
6355;DHT22;3210;48.708;9.030;2022-10-26T02:42:18;11.10;99.90
6355;DHT22;3210;48.708;9.030;2022-10-26T02:44:48;11.10;99.90
6355;DHT22;3210;48.708;9.030;2022-10-26T02:47:16;11.10;99.90
6355;DHT22;3210;48.708;9.030;2022-10-26T02:49:45;11.00;99.90
6355;DHT22;3210;48.708;9.030;2022-10-26T02:52:16;11.10;99.90
6355;DHT22;3210;48.708;9.030;2022-10-26T02:54:51;11.00;99.90
6355;DHT22;3210;48.708;9.030;2022-10-26T02:57:22;11.00;99.90
6355;DHT22;3210;48.708;9.030;2022-10-26T02:59:51;11.00;99.90
6355;DHT22;3210;48.708;9.030;2022-10-26T03:02:20;11.20;99.90
6355;DHT22;3210;48.708;9.030;2022-10-26T03:04:50;11.10;99.90
6355;DHT22;3210;48.708;9.030;2022-10-26T03:07:21;11.20;99.90
6355;DHT22;3210;48.708;9.030;2022-10-26T03:09:48;11.10;99.90
6355;DHT22;3210;48.708;9.030;2022-10-26T03:12:15;11.10;99.90
6355;DHT22;3210;48.708;9.030;2022-10-26T03:14:42;11.20;99.90
6355;DHT22;3210;48.708;9.030;2022-10-26T03:17:09;11.30;99.90
6355;DHT22;3210;48.708;9.030;2022-10-26T03:19:36;11.30;99.90
6355;DHT22;3210;48.708;9.030;2022-10-26T03:22:04;11.30;99.90
6355;DHT22;3210;48.708;9.030;2022-10-26T03:24:30;11.30;99.90
6355;DHT22;3210;48.708;9.030;2022-10-26T03:26:57;11.40;99.90
6355;DHT22;3210;48.708;9.030;2022-10-26T03:29:24;11.40;99.90
6355;DHT22;3210;48.708;9.030;2022-10-26T03:31:51;11.50;99.90
6355;DHT22;3210;48.708;9.030;2022-10-26T03:34:19;11.50;99.90
6355;DHT22;3210;48.708;9.030;2022-10-26T03:36:46;11.60;99.90
6355;DHT22;3210;48.708;9.030;2022-10-26T03:39:14;11.60;99.90
6355;DHT22;3210;48.708;9.030;2022-10-26T03:41:41;11.60;28.40
6355;DHT22;3210;48.708;9.030;2022-10-26T03:44:08;11.70;1.00
6355;DHT22;3210;48.708;9.030;2022-10-26T03:46:35;11.70;1.00
6355;DHT22;3210;48.708;9.030;2022-10-26T03:49:02;11.80;99.90
6355;DHT22;3210;48.708;9.030;2022-10-26T03:51:29;11.90;1.00
6355;DHT22;3210;48.708;9.030;2022-10-26T03:53:56;11.90;1.00
6355;DHT22;3210;48.708;9.030;2022-10-26T03:56:24;12.00;1.00
6355;DHT22;3210;48.708;9.030;2022-10-26T03:58:51;12.00;1.00
6355;DHT22;3210;48.708;9.030;2022-10-26T04:01:18;12.10;99.90
6355;DHT22;3210;48.708;9.030;2022-10-26T04:03:44;12.10;1.00
6355;DHT22;3210;48.708;9.030;2022-10-26T04:06:12;12.20;1.00
6355;DHT22;3210;48.708;9.030;2022-10-26T04:08:38;12.50;1.00
6355;DHT22;3210;48.708;9.030;2022-10-26T04:11:05;12.60;99.90
6355;DHT22;3210;48.708;9.030;2022-10-26T04:13:33;12.60;99.90
6355;DHT22;3210;48.708;9.030;2022-10-26T04:16:00;12.70;1.00
6355;DHT22;3210;48.708;9.030;2022-10-26T04:18:27;12.60;1.00
6355;DHT22;3210;48.708;9.030;2022-10-26T04:20:54;12.60;99.90
6355;DHT22;3210;48.708;9.030;2022-10-26T04:23:21;12.60;1.00
6355;DHT22;3210;48.708;9.030;2022-10-26T04:25:48;12.80;1.00
6355;DHT22;3210;48.708;9.030;2022-10-26T04:28:14;12.80;99.90
6355;DHT22;3210;48.708;9.030;2022-10-26T04:30:42;12.70;1.00
6355;DHT22;3210;48.708;9.030;2022-10-26T04:33:09;12.70;1.00
6355;DHT22;3210;48.708;9.030;2022-10-26T04:35:36;12.60;1.00
6355;DHT22;3210;48.708;9.030;2022-10-26T04:38:05;12.70;39.70
6355;DHT22;3210;48.708;9.030;2022-10-26T04:40:33;12.70;22.20
6355;DHT22;3210;48.708;9.030;2022-10-26T04:43:00;12.60;1.00
6355;DHT22;3210;48.708;9.030;2022-10-26T04:45:27;12.70;1.00
6355;DHT22;3210;48.708;9.030;2022-10-26T04:48:01;12.70;1.00
6355;DHT22;3210;48.708;9.030;2022-10-26T04:50:28;12.60;99.90
6355;DHT22;3210;48.708;9.030;2022-10-26T04:52:55;12.60;1.00
6355;DHT22;3210;48.708;9.030;2022-10-26T04:55:22;12.70;1.00
6355;DHT22;3210;48.708;9.030;2022-10-26T04:57:48;12.50;99.90
6355;DHT22;3210;48.708;9.030;2022-10-26T05:00:15;12.50;99.90
6355;DHT22;3210;48.708;9.030;2022-10-26T05:02:42;12.60;99.90
6355;DHT22;3210;48.708;9.030;2022-10-26T05:05:10;12.50;1.00
6355;DHT22;3210;48.708;9.030;2022-10-26T05:07:37;12.40;99.90
6355;DHT22;3210;48.708;9.030;2022-10-26T05:10:05;12.50;36.20
6355;DHT22;3210;48.708;9.030;2022-10-26T05:12:32;12.40;1.00
6355;DHT22;3210;48.708;9.030;2022-10-26T05:14:58;12.40;99.90
6355;DHT22;3210;48.708;9.030;2022-10-26T05:17:25;12.40;1.00
6355;DHT22;3210;48.708;9.030;2022-10-26T05:19:52;12.40;1.00
6355;DHT22;3210;48.708;9.030;2022-10-26T05:22:23;12.40;1.00
6355;DHT22;3210;48.708;9.030;2022-10-26T05:24:50;12.30;1.00
6355;DHT22;3210;48.708;9.030;2022-10-26T05:27:17;12.30;1.00
6355;DHT22;3210;48.708;9.030;2022-10-26T05:29:44;12.30;99.90
6355;DHT22;3210;48.708;9.030;2022-10-26T05:32:11;12.40;32.10
6355;DHT22;3210;48.708;9.030;2022-10-26T05:34:37;12.30;1.00
6355;DHT22;3210;48.708;9.030;2022-10-26T05:37:04;12.40;1.00
6355;DHT22;3210;48.708;9.030;2022-10-26T05:39:32;12.40;1.00
6355;DHT22;3210;48.708;9.030;2022-10-26T05:41:59;12.50;95.60
6355;DHT22;3210;48.708;9.030;2022-10-26T05:44:26;12.60;99.90
6355;DHT22;3210;48.708;9.030;2022-10-26T05:46:53;12.70;99.90
6355;DHT22;3210;48.708;9.030;2022-10-26T05:49:20;12.80;1.00
6355;DHT22;3210;48.708;9.030;2022-10-26T05:51:46;12.80;99.90
6355;DHT22;3210;48.708;9.030;2022-10-26T05:54:13;12.80;99.90
6355;DHT22;3210;48.708;9.030;2022-10-26T05:56:42;12.70;18.50
6355;DHT22;3210;48.708;9.030;2022-10-26T05:59:11;12.70;99.90
6355;DHT22;3210;48.708;9.030;2022-10-26T06:01:50;12.60;99.90
6355;DHT22;3210;48.708;9.030;2022-10-26T06:04:29;12.50;99.90
6355;DHT22;3210;48.708;9.030;2022-10-26T06:07:01;12.40;99.90
6355;DHT22;3210;48.708;9.030;2022-10-26T06:09:28;12.40;99.90
6355;DHT22;3210;48.708;9.030;2022-10-26T06:11:57;12.40;1.00
6355;DHT22;3210;48.708;9.030;2022-10-26T06:14:26;12.50;99.90
6355;DHT22;3210;48.708;9.030;2022-10-26T06:17:01;12.50;1.00
6355;DHT22;3210;48.708;9.030;2022-10-26T06:19:40;12.60;99.90
6355;DHT22;3210;48.708;9.030;2022-10-26T06:22:21;12.70;99.90
6355;DHT22;3210;48.708;9.030;2022-10-26T06:24:59;12.90;99.90
6355;DHT22;3210;48.708;9.030;2022-10-26T06:27:35;12.90;99.90
6355;DHT22;3210;48.708;9.030;2022-10-26T06:30:05;12.90;99.90
6355;DHT22;3210;48.708;9.030;2022-10-26T06:32:32;12.90;99.90
6355;DHT22;3210;48.708;9.030;2022-10-26T06:35:10;13.00;99.90
6355;DHT22;3210;48.708;9.030;2022-10-26T06:37:41;13.00;32.70
6355;DHT22;3210;48.708;9.030;2022-10-26T06:40:11;13.00;99.90
6355;DHT22;3210;48.708;9.030;2022-10-26T06:42:41;13.10;1.00
6355;DHT22;3210;48.708;9.030;2022-10-26T06:45:11;13.00;87.30
6355;DHT22;3210;48.708;9.030;2022-10-26T06:47:43;13.00;99.90
6355;DHT22;3210;48.708;9.030;2022-10-26T06:50:24;13.10;24.80
6355;DHT22;3210;48.708;9.030;2022-10-26T06:52:58;13.10;17.50
6355;DHT22;3210;48.708;9.030;2022-10-26T06:55:29;13.00;99.90
6355;DHT22;3210;48.708;9.030;2022-10-26T06:58:08;13.00;99.90
6355;DHT22;3210;48.708;9.030;2022-10-26T07:00:38;13.00;99.90
6355;DHT22;3210;48.708;9.030;2022-10-26T07:03:06;13.00;99.90
6355;DHT22;3210;48.708;9.030;2022-10-26T07:05:33;13.00;23.80
6355;DHT22;3210;48.708;9.030;2022-10-26T07:08:00;13.10;1.00
6355;DHT22;3210;48.708;9.030;2022-10-26T07:10:26;13.10;28.30
6355;DHT22;3210;48.708;9.030;2022-10-26T07:12:53;13.10;99.90
6355;DHT22;3210;48.708;9.030;2022-10-26T07:15:21;13.10;99.90
6355;DHT22;3210;48.708;9.030;2022-10-26T07:17:48;13.20;1.00
6355;DHT22;3210;48.708;9.030;2022-10-26T07:20:17;13.30;1.00
6355;DHT22;3210;48.708;9.030;2022-10-26T07:22:44;13.40;1.00
6355;DHT22;3210;48.708;9.030;2022-10-26T07:25:11;13.40;1.00
6355;DHT22;3210;48.708;9.030;2022-10-26T07:27:38;13.40;1.00
6355;DHT22;3210;48.708;9.030;2022-10-26T07:30:05;13.40;1.00
6355;DHT22;3210;48.708;9.030;2022-10-26T07:32:34;13.50;99.90
6355;DHT22;3210;48.708;9.030;2022-10-26T07:35:01;13.50;99.90
6355;DHT22;3210;48.708;9.030;2022-10-26T07:37:27;13.50;99.90
6355;DHT22;3210;48.708;9.030;2022-10-26T07:39:54;13.50;99.90
6355;DHT22;3210;48.708;9.030;2022-10-26T07:42:21;13.60;99.90
6355;DHT22;3210;48.708;9.030;2022-10-26T07:44:48;13.70;99.90
6355;DHT22;3210;48.708;9.030;2022-10-26T07:47:15;13.80;99.90
6355;DHT22;3210;48.708;9.030;2022-10-26T07:49:43;13.90;1.00
6355;DHT22;3210;48.708;9.030;2022-10-26T07:52:10;13.90;55.20
6355;DHT22;3210;48.708;9.030;2022-10-26T07:54:37;13.90;99.90
6355;DHT22;3210;48.708;9.030;2022-10-26T07:57:04;13.90;99.90
6355;DHT22;3210;48.708;9.030;2022-10-26T07:59:30;13.90;99.90
6355;DHT22;3210;48.708;9.030;2022-10-26T08:01:57;14.00;99.90
6355;DHT22;3210;48.708;9.030;2022-10-26T08:04:24;14.10;99.90
6355;DHT22;3210;48.708;9.030;2022-10-26T08:06:52;14.10;99.90
6355;DHT22;3210;48.708;9.030;2022-10-26T08:09:19;14.30;1.00
6355;DHT22;3210;48.708;9.030;2022-10-26T08:11:46;14.40;99.90
6355;DHT22;3210;48.708;9.030;2022-10-26T08:14:13;14.40;1.00
6355;DHT22;3210;48.708;9.030;2022-10-26T08:16:40;14.40;99.90
6355;DHT22;3210;48.708;9.030;2022-10-26T08:19:06;14.50;99.90
6355;DHT22;3210;48.708;9.030;2022-10-26T08:21:33;14.50;99.90
6355;DHT22;3210;48.708;9.030;2022-10-26T08:24:02;14.60;99.90
6355;DHT22;3210;48.708;9.030;2022-10-26T08:26:29;14.60;99.90
6355;DHT22;3210;48.708;9.030;2022-10-26T08:28:56;14.70;99.90
6355;DHT22;3210;48.708;9.030;2022-10-26T08:31:22;14.60;99.90
6355;DHT22;3210;48.708;9.030;2022-10-26T08:33:49;14.70;99.90
6355;DHT22;3210;48.708;9.030;2022-10-26T08:36:19;14.70;99.90
6355;DHT22;3210;48.708;9.030;2022-10-26T08:38:48;14.70;99.90
6355;DHT22;3210;48.708;9.030;2022-10-26T08:41:16;14.80;99.90
6355;DHT22;3210;48.708;9.030;2022-10-26T08:43:48;14.90;99.90
6355;DHT22;3210;48.708;9.030;2022-10-26T08:46:21;14.90;99.90
6355;DHT22;3210;48.708;9.030;2022-10-26T08:48:52;15.00;99.90
6355;DHT22;3210;48.708;9.030;2022-10-26T08:51:24;15.10;99.90
6355;DHT22;3210;48.708;9.030;2022-10-26T08:53:55;15.20;99.90
6355;DHT22;3210;48.708;9.030;2022-10-26T08:56:25;15.30;33.40
6355;DHT22;3210;48.708;9.030;2022-10-26T08:58:55;15.40;1.00
6355;DHT22;3210;48.708;9.030;2022-10-26T09:01:23;15.40;1.00
6355;DHT22;3210;48.708;9.030;2022-10-26T09:03:50;15.50;1.00
6355;DHT22;3210;48.708;9.030;2022-10-26T09:06:22;15.50;2.80
6355;DHT22;3210;48.708;9.030;2022-10-26T09:08:57;15.70;1.00
6355;DHT22;3210;48.708;9.030;2022-10-26T09:11:39;16.00;1.00
6355;DHT22;3210;48.708;9.030;2022-10-26T09:14:13;16.00;1.00
6355;DHT22;3210;48.708;9.030;2022-10-26T09:16:50;16.10;1.00
6355;DHT22;3210;48.708;9.030;2022-10-26T09:19:31;16.20;1.00
6355;DHT22;3210;48.708;9.030;2022-10-26T09:22:03;16.20;1.00
6355;DHT22;3210;48.708;9.030;2022-10-26T09:24:33;16.20;1.00
6355;DHT22;3210;48.708;9.030;2022-10-26T09:27:07;16.30;1.00
6355;DHT22;3210;48.708;9.030;2022-10-26T09:29:39;16.30;1.00
6355;DHT22;3210;48.708;9.030;2022-10-26T09:32:12;16.40;1.00
6355;DHT22;3210;48.708;9.030;2022-10-26T09:34:45;16.50;99.90
6355;DHT22;3210;48.708;9.030;2022-10-26T09:37:17;16.50;99.90
6355;DHT22;3210;48.708;9.030;2022-10-26T09:39:51;16.50;99.90
6355;DHT22;3210;48.708;9.030;2022-10-26T09:42:27;16.60;99.90
6355;DHT22;3210;48.708;9.030;2022-10-26T09:45:00;16.70;99.90
6355;DHT22;3210;48.708;9.030;2022-10-26T09:47:34;16.80;99.90
6355;DHT22;3210;48.708;9.030;2022-10-26T09:50:13;16.80;99.90
6355;DHT22;3210;48.708;9.030;2022-10-26T09:52:42;16.80;99.90
6355;DHT22;3210;48.708;9.030;2022-10-26T09:55:10;16.80;99.90
6355;DHT22;3210;48.708;9.030;2022-10-26T09:57:39;16.80;99.90
6355;DHT22;3210;48.708;9.030;2022-10-26T10:00:12;16.90;99.90
6355;DHT22;3210;48.708;9.030;2022-10-26T10:02:41;16.90;99.90
6355;DHT22;3210;48.708;9.030;2022-10-26T10:05:26;16.90;99.90
6355;DHT22;3210;48.708;9.030;2022-10-26T10:08:09;16.90;99.90
6355;DHT22;3210;48.708;9.030;2022-10-26T10:10:37;16.90;99.90
6355;DHT22;3210;48.708;9.030;2022-10-26T10:13:15;16.90;99.90
6355;DHT22;3210;48.708;9.030;2022-10-26T10:15:51;17.10;99.90
6355;DHT22;3210;48.708;9.030;2022-10-26T10:18:19;17.30;99.90
6355;DHT22;3210;48.708;9.030;2022-10-26T10:20:51;17.50;99.90
6355;DHT22;3210;48.708;9.030;2022-10-26T10:23:30;17.80;99.90
6355;DHT22;3210;48.708;9.030;2022-10-26T10:25:59;17.90;99.90
6355;DHT22;3210;48.708;9.030;2022-10-26T10:28:29;18.10;99.90
6355;DHT22;3210;48.708;9.030;2022-10-26T10:30:57;18.30;99.90
6355;DHT22;3210;48.708;9.030;2022-10-26T10:33:35;18.40;99.90
6355;DHT22;3210;48.708;9.030;2022-10-26T10:36:06;18.40;99.90
6355;DHT22;3210;48.708;9.030;2022-10-26T10:38:40;18.30;99.90
6355;DHT22;3210;48.708;9.030;2022-10-26T10:41:16;18.40;99.90
6355;DHT22;3210;48.708;9.030;2022-10-26T10:43:47;18.80;99.90
6355;DHT22;3210;48.708;9.030;2022-10-26T10:46:20;19.00;99.90
6355;DHT22;3210;48.708;9.030;2022-10-26T10:48:53;19.20;99.90
6355;DHT22;3210;48.708;9.030;2022-10-26T10:51:23;19.40;99.90
6355;DHT22;3210;48.708;9.030;2022-10-26T10:53:52;19.50;99.90
6355;DHT22;3210;48.708;9.030;2022-10-26T10:56:32;19.40;99.90
6355;DHT22;3210;48.708;9.030;2022-10-26T11:05:09;19.50;99.90
6355;DHT22;3210;48.708;9.030;2022-10-26T11:07:46;19.30;99.90
6355;DHT22;3210;48.708;9.030;2022-10-26T11:10:17;19.30;99.90
6355;DHT22;3210;48.708;9.030;2022-10-26T11:12:50;19.20;99.90
6355;DHT22;3210;48.708;9.030;2022-10-26T11:15:21;19.10;99.90
6355;DHT22;3210;48.708;9.030;2022-10-26T11:17:57;19.00;99.90
6355;DHT22;3210;48.708;9.030;2022-10-26T11:20:27;18.90;99.90
6355;DHT22;3210;48.708;9.030;2022-10-26T11:23:02;18.80;99.90
6355;DHT22;3210;48.708;9.030;2022-10-26T11:25:34;18.80;99.90
6355;DHT22;3210;48.708;9.030;2022-10-26T11:28:09;18.70;99.90
6355;DHT22;3210;48.708;9.030;2022-10-26T11:30:43;18.80;99.90
6355;DHT22;3210;48.708;9.030;2022-10-26T11:33:16;18.80;99.90
6355;DHT22;3210;48.708;9.030;2022-10-26T11:35:49;18.80;99.90
6355;DHT22;3210;48.708;9.030;2022-10-26T11:38:23;18.90;99.90
6355;DHT22;3210;48.708;9.030;2022-10-26T11:40:54;19.10;99.90
6355;DHT22;3210;48.708;9.030;2022-10-26T11:43:27;19.10;99.90
6355;DHT22;3210;48.708;9.030;2022-10-26T11:46:03;19.10;99.90
6355;DHT22;3210;48.708;9.030;2022-10-26T11:48:36;19.10;99.90
6355;DHT22;3210;48.708;9.030;2022-10-26T11:51:13;19.00;99.90
6355;DHT22;3210;48.708;9.030;2022-10-26T11:53:44;19.10;99.90
6355;DHT22;3210;48.708;9.030;2022-10-26T11:56:15;19.10;99.90
6355;DHT22;3210;48.708;9.030;2022-10-26T11:58:44;19.00;99.90
6355;DHT22;3210;48.708;9.030;2022-10-26T12:01:13;19.00;99.90
6355;DHT22;3210;48.708;9.030;2022-10-26T12:03:45;18.90;99.90
6355;DHT22;3210;48.708;9.030;2022-10-26T12:06:14;19.00;99.90
6355;DHT22;3210;48.708;9.030;2022-10-26T12:08:48;19.10;99.90
6355;DHT22;3210;48.708;9.030;2022-10-26T12:11:37;19.10;99.90
6355;DHT22;3210;48.708;9.030;2022-10-26T12:14:16;19.00;99.90
6355;DHT22;3210;48.708;9.030;2022-10-26T12:16:50;19.00;99.90
6355;DHT22;3210;48.708;9.030;2022-10-26T12:19:25;19.00;99.90
6355;DHT22;3210;48.708;9.030;2022-10-26T12:21:54;19.00;99.90
6355;DHT22;3210;48.708;9.030;2022-10-26T12:24:26;19.10;99.90
6355;DHT22;3210;48.708;9.030;2022-10-26T12:26:55;19.20;99.90
6355;DHT22;3210;48.708;9.030;2022-10-26T12:29:34;19.20;99.90
6355;DHT22;3210;48.708;9.030;2022-10-26T12:32:04;19.20;99.90
6355;DHT22;3210;48.708;9.030;2022-10-26T12:34:58;19.20;99.90
6355;DHT22;3210;48.708;9.030;2022-10-26T12:37:33;19.30;99.90
6355;DHT22;3210;48.708;9.030;2022-10-26T12:40:41;19.40;99.90
6355;DHT22;3210;48.708;9.030;2022-10-26T12:43:34;19.40;99.90
6355;DHT22;3210;48.708;9.030;2022-10-26T12:55:36;19.40;99.90
6355;DHT22;3210;48.708;9.030;2022-10-26T12:58:25;19.50;99.90
6355;DHT22;3210;48.708;9.030;2022-10-26T13:04:04;19.50;99.90
6355;DHT22;3210;48.708;9.030;2022-10-26T13:06:47;19.50;99.90
6355;DHT22;3210;48.708;9.030;2022-10-26T13:09:22;19.60;99.90
6355;DHT22;3210;48.708;9.030;2022-10-26T13:11:52;19.70;99.90
6355;DHT22;3210;48.708;9.030;2022-10-26T13:14:23;19.70;99.90
6355;DHT22;3210;48.708;9.030;2022-10-26T13:16:50;19.70;99.90
6355;DHT22;3210;48.708;9.030;2022-10-26T13:19:23;19.80;99.90
6355;DHT22;3210;48.708;9.030;2022-10-26T13:21:51;19.80;99.90
6355;DHT22;3210;48.708;9.030;2022-10-26T13:24:22;19.70;99.90
6355;DHT22;3210;48.708;9.030;2022-10-26T13:27:22;19.80;99.90
6355;DHT22;3210;48.708;9.030;2022-10-26T13:30:16;19.80;99.90
6355;DHT22;3210;48.708;9.030;2022-10-26T13:32:49;19.70;99.90
6355;DHT22;3210;48.708;9.030;2022-10-26T13:35:19;19.80;99.90
6355;DHT22;3210;48.708;9.030;2022-10-26T13:37:49;19.90;99.90
6355;DHT22;3210;48.708;9.030;2022-10-26T13:40:20;19.80;99.90
6355;DHT22;3210;48.708;9.030;2022-10-26T13:42:50;19.80;97.20
6355;DHT22;3210;48.708;9.030;2022-10-26T13:45:20;19.70;98.60
6355;DHT22;3210;48.708;9.030;2022-10-26T13:47:53;19.80;97.00
6355;DHT22;3210;48.708;9.030;2022-10-26T13:50:24;19.70;94.60
6355;DHT22;3210;48.708;9.030;2022-10-26T13:52:54;19.60;96.70
6355;DHT22;3210;48.708;9.030;2022-10-26T13:55:26;19.70;93.60
6355;DHT22;3210;48.708;9.030;2022-10-26T13:58:11;19.70;99.90
6355;DHT22;3210;48.708;9.030;2022-10-26T14:00:59;19.70;96.10
6355;DHT22;3210;48.708;9.030;2022-10-26T14:03:26;19.60;98.70
6355;DHT22;3210;48.708;9.030;2022-10-26T14:05:53;19.70;97.00
6355;DHT22;3210;48.708;9.030;2022-10-26T14:08:21;19.70;94.50
6355;DHT22;3210;48.708;9.030;2022-10-26T14:10:54;19.80;99.90
6355;DHT22;3210;48.708;9.030;2022-10-26T14:13:23;19.70;96.50
6355;DHT22;3210;48.708;9.030;2022-10-26T14:15:51;19.70;95.30
6355;DHT22;3210;48.708;9.030;2022-10-26T14:18:21;19.60;96.40
6355;DHT22;3210;48.708;9.030;2022-10-26T14:20:54;19.70;92.10
6355;DHT22;3210;48.708;9.030;2022-10-26T14:23:27;19.70;93.90
6355;DHT22;3210;48.708;9.030;2022-10-26T14:25:55;19.70;93.90
6355;DHT22;3210;48.708;9.030;2022-10-26T14:28:24;19.70;91.00
6355;DHT22;3210;48.708;9.030;2022-10-26T14:30:51;19.70;90.00
6355;DHT22;3210;48.708;9.030;2022-10-26T14:33:19;19.70;88.00
6355;DHT22;3210;48.708;9.030;2022-10-26T14:35:46;19.70;88.20
6355;DHT22;3210;48.708;9.030;2022-10-26T14:38:17;19.80;85.70
6355;DHT22;3210;48.708;9.030;2022-10-26T14:40:46;19.70;81.70
6355;DHT22;3210;48.708;9.030;2022-10-26T14:43:17;19.70;83.80
6355;DHT22;3210;48.708;9.030;2022-10-26T14:45:48;19.70;93.20
6355;DHT22;3210;48.708;9.030;2022-10-26T14:48:21;19.60;72.20
6355;DHT22;3210;48.708;9.030;2022-10-26T14:50:59;19.50;70.80
6355;DHT22;3210;48.708;9.030;2022-10-26T14:53:33;19.50;69.40
6355;DHT22;3210;48.708;9.030;2022-10-26T14:56:03;19.40;72.90
6355;DHT22;3210;48.708;9.030;2022-10-26T14:58:32;19.40;72.60
6355;DHT22;3210;48.708;9.030;2022-10-26T15:01:23;19.40;75.30
6355;DHT22;3210;48.708;9.030;2022-10-26T15:03:53;19.40;75.00
6355;DHT22;3210;48.708;9.030;2022-10-26T15:06:44;19.30;74.70
6355;DHT22;3210;48.708;9.030;2022-10-26T15:09:40;19.30;74.80
6355;DHT22;3210;48.708;9.030;2022-10-26T15:12:22;19.20;78.60
6355;DHT22;3210;48.708;9.030;2022-10-26T15:14:53;19.10;79.50
6355;DHT22;3210;48.708;9.030;2022-10-26T15:17:22;19.10;79.20
6355;DHT22;3210;48.708;9.030;2022-10-26T15:19:52;19.00;78.70
6355;DHT22;3210;48.708;9.030;2022-10-26T15:22:22;18.90;75.40
6355;DHT22;3210;48.708;9.030;2022-10-26T15:24:51;18.80;79.80
6355;DHT22;3210;48.708;9.030;2022-10-26T15:27:19;18.70;76.90
6355;DHT22;3210;48.708;9.030;2022-10-26T15:29:49;18.50;75.20
6355;DHT22;3210;48.708;9.030;2022-10-26T15:32:24;18.50;79.20
6355;DHT22;3210;48.708;9.030;2022-10-26T15:35:23;18.40;87.80
6355;DHT22;3210;48.708;9.030;2022-10-26T15:37:52;18.20;93.90
6355;DHT22;3210;48.708;9.030;2022-10-26T15:40:20;17.90;99.90
6355;DHT22;3210;48.708;9.030;2022-10-26T15:42:49;17.80;99.90
6355;DHT22;3210;48.708;9.030;2022-10-26T15:45:19;17.60;99.90
6355;DHT22;3210;48.708;9.030;2022-10-26T15:47:48;17.30;99.90
6355;DHT22;3210;48.708;9.030;2022-10-26T15:50:18;17.20;99.90
6355;DHT22;3210;48.708;9.030;2022-10-26T15:52:45;17.10;99.90
6355;DHT22;3210;48.708;9.030;2022-10-26T15:55:12;16.90;99.90
6355;DHT22;3210;48.708;9.030;2022-10-26T15:57:39;16.70;99.90
6355;DHT22;3210;48.708;9.030;2022-10-26T16:00:09;16.50;99.90
6355;DHT22;3210;48.708;9.030;2022-10-26T16:02:41;16.40;99.90
6355;DHT22;3210;48.708;9.030;2022-10-26T16:05:10;16.30;99.90
6355;DHT22;3210;48.708;9.030;2022-10-26T16:07:38;16.10;99.90
6355;DHT22;3210;48.708;9.030;2022-10-26T16:10:12;16.00;99.90
6355;DHT22;3210;48.708;9.030;2022-10-26T16:12:39;15.90;99.90
6355;DHT22;3210;48.708;9.030;2022-10-26T16:15:07;15.80;99.90
6355;DHT22;3210;48.708;9.030;2022-10-26T16:17:34;15.70;99.90
6355;DHT22;3210;48.708;9.030;2022-10-26T16:20:01;15.60;1.00
6355;DHT22;3210;48.708;9.030;2022-10-26T16:22:30;15.40;1.00
6355;DHT22;3210;48.708;9.030;2022-10-26T16:24:56;15.30;1.00
6355;DHT22;3210;48.708;9.030;2022-10-26T16:27:23;15.20;1.00
6355;DHT22;3210;48.708;9.030;2022-10-26T16:29:50;15.00;99.90
6355;DHT22;3210;48.708;9.030;2022-10-26T16:32:17;14.90;99.90
6355;DHT22;3210;48.708;9.030;2022-10-26T16:34:44;14.80;99.90
6355;DHT22;3210;48.708;9.030;2022-10-26T16:37:10;14.70;99.90
6355;DHT22;3210;48.708;9.030;2022-10-26T16:39:39;14.60;1.00
6355;DHT22;3210;48.708;9.030;2022-10-26T16:42:05;14.60;1.00
6355;DHT22;3210;48.708;9.030;2022-10-26T16:44:32;14.50;1.00
6355;DHT22;3210;48.708;9.030;2022-10-26T16:46:59;14.30;85.90
6355;DHT22;3210;48.708;9.030;2022-10-26T16:49:26;14.30;99.90
6355;DHT22;3210;48.708;9.030;2022-10-26T16:51:55;14.10;99.90
6355;DHT22;3210;48.708;9.030;2022-10-26T16:54:22;14.10;1.00